To NAV CANADA Home Page Login to a new session Search on AWWS site Feedback and Comments Disclaimer Vers la page française équivalente Tips FAQ What's new on the site To the Forecasts and Observations / NOTAM section To "File a Flight Plan" website Publications and other links Update of the User's profile FIC Telephone Numbers My Weather Data Folder Route Weather Data Regional Weather Data Local Weather Data To the Forecasts and Observations / NOTAM section
Request Generated 08/22/2017 at 03:21:23 UTC . Weather information available at that time is displayed.

METAR/TAF

VANCOUVER INTL/BC    (show WxCam)

METAR CYVR 220300Z 23004KT 30SM FEW210 FEW230 19/16 A3000 RMK CI1CC1
CI TR CONTRAILS SLP161 DENSITY ALT 400FT=
METAR CYVR 220200Z 28004KT 30SM FEW230 20/16 A3001 RMK CC1 SLP165
DENSITY ALT 600FT=
METAR CYVR 220100Z 24006KT 30SM FEW230 21/15 A3003 RMK CC1 CC TR
SLP171 DENSITY ALT 600FT=

TAF CYVR 220238Z 2203/2306 28005KT P6SM FEW230
BECMG 2209/2211 09006KT
BECMG 2216/2218 17008KT
RMK NXT FCST BY 220600Z=
Your time UTC time
Weather data provided by Environment Canada and NAV CANADA